sensor_id;sensor_type;location;lat;lon;timestamp;P1;durP1;ratioP1;P2;durP2;ratioP2
12880;SDS011;6508;53.786;9.996;2023-11-21T00:00:17;31.77;;;16.60;;
12880;SDS011;6508;53.786;9.996;2023-11-21T00:02:45;31.10;;;15.10;;
12880;SDS011;6508;53.786;9.996;2023-11-21T00:05:14;31.38;;;15.00;;
12880;SDS011;6508;53.786;9.996;2023-11-21T00:07:43;29.73;;;16.33;;
12880;SDS011;6508;53.786;9.996;2023-11-21T00:10:11;26.95;;;16.27;;
12880;SDS011;6508;53.786;9.996;2023-11-21T00:12:42;36.22;;;16.85;;
12880;SDS011;6508;53.786;9.996;2023-11-21T00:15:10;30.77;;;16.77;;
12880;SDS011;6508;53.786;9.996;2023-11-21T00:17:38;26.38;;;14.05;;
12880;SDS011;6508;53.786;9.996;2023-11-21T00:20:07;27.90;;;15.57;;
12880;SDS011;6508;53.786;9.996;2023-11-21T00:22:34;26.52;;;14.75;;
12880;SDS011;6508;53.786;9.996;2023-11-21T00:25:03;27.38;;;14.38;;
12880;SDS011;6508;53.786;9.996;2023-11-21T00:27:30;27.30;;;14.00;;
12880;SDS011;6508;53.786;9.996;2023-11-21T00:30:00;23.27;;;12.93;;
12880;SDS011;6508;53.786;9.996;2023-11-21T00:32:28;25.58;;;13.80;;
12880;SDS011;6508;53.786;9.996;2023-11-21T00:34:55;24.40;;;13.50;;
12880;SDS011;6508;53.786;9.996;2023-11-21T00:37:23;26.42;;;14.13;;
12880;SDS011;6508;53.786;9.996;2023-11-21T00:39:51;24.77;;;13.85;;
12880;SDS011;6508;53.786;9.996;2023-11-21T00:42:19;21.70;;;12.55;;
12880;SDS011;6508;53.786;9.996;2023-11-21T00:44:47;22.67;;;12.73;;
12880;SDS011;6508;53.786;9.996;2023-11-21T00:47:16;20.80;;;11.70;;
12880;SDS011;6508;53.786;9.996;2023-11-21T00:49:44;23.83;;;12.73;;
12880;SDS011;6508;53.786;9.996;2023-11-21T00:52:12;19.42;;;12.30;;
12880;SDS011;6508;53.786;9.996;2023-11-21T00:54:40;18.27;;;11.35;;
12880;SDS011;6508;53.786;9.996;2023-11-21T00:57:07;22.90;;;11.68;;
12880;SDS011;6508;53.786;9.996;2023-11-21T00:59:35;21.10;;;11.65;;
12880;SDS011;6508;53.786;9.996;2023-11-21T01:02:03;19.85;;;11.30;;
12880;SDS011;6508;53.786;9.996;2023-11-21T01:04:33;18.65;;;10.95;;
12880;SDS011;6508;53.786;9.996;2023-11-21T01:07:00;17.80;;;10.73;;
12880;SDS011;6508;53.786;9.996;2023-11-21T01:09:29;19.38;;;10.73;;
12880;SDS011;6508;53.786;9.996;2023-11-21T01:11:57;18.02;;;11.18;;
12880;SDS011;6508;53.786;9.996;2023-11-21T01:14:26;18.10;;;10.70;;
12880;SDS011;6508;53.786;9.996;2023-11-21T01:16:54;17.33;;;10.02;;
12880;SDS011;6508;53.786;9.996;2023-11-21T01:19:22;18.08;;;10.88;;
12880;SDS011;6508;53.786;9.996;2023-11-21T01:21:51;14.65;;;9.73;;
12880;SDS011;6508;53.786;9.996;2023-11-21T01:24:19;16.30;;;9.90;;
12880;SDS011;6508;53.786;9.996;2023-11-21T01:26:47;14.10;;;10.20;;
12880;SDS011;6508;53.786;9.996;2023-11-21T01:29:15;17.65;;;9.82;;
12880;SDS011;6508;53.786;9.996;2023-11-21T01:31:42;11.52;;;8.98;;
12880;SDS011;6508;53.786;9.996;2023-11-21T01:34:11;14.85;;;9.13;;
12880;SDS011;6508;53.786;9.996;2023-11-21T01:36:38;14.23;;;8.52;;
12880;SDS011;6508;53.786;9.996;2023-11-21T01:39:07;14.20;;;8.82;;
12880;SDS011;6508;53.786;9.996;2023-11-21T01:41:37;12.88;;;8.27;;
12880;SDS011;6508;53.786;9.996;2023-11-21T01:44:05;15.25;;;8.07;;
12880;SDS011;6508;53.786;9.996;2023-11-21T01:46:35;16.13;;;9.30;;
12880;SDS011;6508;53.786;9.996;2023-11-21T01:49:04;12.18;;;7.88;;
12880;SDS011;6508;53.786;9.996;2023-11-21T01:51:33;10.52;;;8.23;;
12880;SDS011;6508;53.786;9.996;2023-11-21T01:54:01;15.45;;;8.85;;
12880;SDS011;6508;53.786;9.996;2023-11-21T01:56:33;13.75;;;8.63;;
12880;SDS011;6508;53.786;9.996;2023-11-21T01:59:02;14.43;;;8.15;;
12880;SDS011;6508;53.786;9.996;2023-11-21T02:01:30;15.38;;;9.07;;
12880;SDS011;6508;53.786;9.996;2023-11-21T02:03:58;16.83;;;9.07;;
12880;SDS011;6508;53.786;9.996;2023-11-21T02:06:27;14.07;;;9.32;;
12880;SDS011;6508;53.786;9.996;2023-11-21T02:08:57;11.98;;;8.38;;
12880;SDS011;6508;53.786;9.996;2023-11-21T02:11:26;14.50;;;9.23;;
12880;SDS011;6508;53.786;9.996;2023-11-21T02:13:55;13.32;;;9.48;;
12880;SDS011;6508;53.786;9.996;2023-11-21T02:16:25;17.85;;;10.18;;
12880;SDS011;6508;53.786;9.996;2023-11-21T02:18:53;13.45;;;9.23;;
12880;SDS011;6508;53.786;9.996;2023-11-21T02:21:21;16.05;;;9.93;;
12880;SDS011;6508;53.786;9.996;2023-11-21T02:23:50;14.98;;;9.00;;
12880;SDS011;6508;53.786;9.996;2023-11-21T02:26:17;11.43;;;8.63;;
12880;SDS011;6508;53.786;9.996;2023-11-21T02:28:46;16.02;;;9.52;;
12880;SDS011;6508;53.786;9.996;2023-11-21T02:31:14;16.02;;;10.23;;
12880;SDS011;6508;53.786;9.996;2023-11-21T02:33:41;14.10;;;9.57;;
12880;SDS011;6508;53.786;9.996;2023-11-21T02:36:10;14.32;;;9.90;;
12880;SDS011;6508;53.786;9.996;2023-11-21T02:38:38;14.52;;;10.13;;
12880;SDS011;6508;53.786;9.996;2023-11-21T02:41:07;15.35;;;9.68;;
12880;SDS011;6508;53.786;9.996;2023-11-21T02:43:35;15.07;;;10.57;;
12880;SDS011;6508;53.786;9.996;2023-11-21T02:46:05;15.27;;;10.00;;
12880;SDS011;6508;53.786;9.996;2023-11-21T02:48:33;16.65;;;10.07;;
12880;SDS011;6508;53.786;9.996;2023-11-21T02:51:02;14.63;;;10.27;;
12880;SDS011;6508;53.786;9.996;2023-11-21T02:53:30;14.30;;;10.18;;
12880;SDS011;6508;53.786;9.996;2023-11-21T02:55:58;15.93;;;9.80;;
12880;SDS011;6508;53.786;9.996;2023-11-21T02:58:28;13.60;;;9.02;;
12880;SDS011;6508;53.786;9.996;2023-11-21T03:00:55;13.43;;;9.30;;
12880;SDS011;6508;53.786;9.996;2023-11-21T03:03:23;14.50;;;9.88;;
12880;SDS011;6508;53.786;9.996;2023-11-21T03:05:51;14.35;;;9.70;;
12880;SDS011;6508;53.786;9.996;2023-11-21T03:08:19;23.52;;;10.40;;
12880;SDS011;6508;53.786;9.996;2023-11-21T03:10:47;14.15;;;9.75;;
12880;SDS011;6508;53.786;9.996;2023-11-21T03:13:15;14.85;;;9.52;;
12880;SDS011;6508;53.786;9.996;2023-11-21T03:15:44;14.65;;;9.38;;
12880;SDS011;6508;53.786;9.996;2023-11-21T03:18:12;16.77;;;10.80;;
12880;SDS011;6508;53.786;9.996;2023-11-21T03:20:40;14.10;;;10.10;;
12880;SDS011;6508;53.786;9.996;2023-11-21T03:23:08;14.15;;;9.45;;
12880;SDS011;6508;53.786;9.996;2023-11-21T03:25:36;13.63;;;9.73;;
12880;SDS011;6508;53.786;9.996;2023-11-21T03:28:04;14.77;;;9.60;;
12880;SDS011;6508;53.786;9.996;2023-11-21T03:30:31;14.70;;;9.88;;
12880;SDS011;6508;53.786;9.996;2023-11-21T03:33:01;14.27;;;9.70;;
12880;SDS011;6508;53.786;9.996;2023-11-21T03:35:28;17.35;;;10.15;;
12880;SDS011;6508;53.786;9.996;2023-11-21T03:37:57;13.52;;;9.75;;
12880;SDS011;6508;53.786;9.996;2023-11-21T03:40:25;14.65;;;9.38;;
12880;SDS011;6508;53.786;9.996;2023-11-21T03:42:53;19.50;;;10.40;;
12880;SDS011;6508;53.786;9.996;2023-11-21T03:45:21;15.80;;;10.32;;
12880;SDS011;6508;53.786;9.996;2023-11-21T03:47:49;17.00;;;10.45;;
12880;SDS011;6508;53.786;9.996;2023-11-21T03:50:20;15.68;;;9.75;;
12880;SDS011;6508;53.786;9.996;2023-11-21T03:52:48;16.90;;;11.13;;
12880;SDS011;6508;53.786;9.996;2023-11-21T03:55:16;16.25;;;11.10;;
12880;SDS011;6508;53.786;9.996;2023-11-21T03:57:44;17.20;;;11.75;;
12880;SDS011;6508;53.786;9.996;2023-11-21T04:00:13;15.88;;;10.52;;
12880;SDS011;6508;53.786;9.996;2023-11-21T04:02:41;19.50;;;10.15;;
12880;SDS011;6508;53.786;9.996;2023-11-21T04:05:09;15.65;;;10.65;;
12880;SDS011;6508;53.786;9.996;2023-11-21T04:07:38;13.15;;;9.88;;
12880;SDS011;6508;53.786;9.996;2023-11-21T04:10:07;16.60;;;10.82;;
12880;SDS011;6508;53.786;9.996;2023-11-21T04:12:36;16.75;;;10.07;;
12880;SDS011;6508;53.786;9.996;2023-11-21T04:15:03;15.27;;;10.23;;
12880;SDS011;6508;53.786;9.996;2023-11-21T04:17:31;15.88;;;10.90;;
12880;SDS011;6508;53.786;9.996;2023-11-21T04:19:59;13.60;;;9.90;;
12880;SDS011;6508;53.786;9.996;2023-11-21T04:22:27;14.98;;;10.13;;
12880;SDS011;6508;53.786;9.996;2023-11-21T04:24:55;18.20;;;10.32;;
12880;SDS011;6508;53.786;9.996;2023-11-21T04:27:23;13.23;;;10.48;;
12880;SDS011;6508;53.786;9.996;2023-11-21T04:29:51;13.32;;;9.90;;
12880;SDS011;6508;53.786;9.996;2023-11-21T04:32:19;14.05;;;9.90;;
12880;SDS011;6508;53.786;9.996;2023-11-21T04:34:46;15.63;;;10.57;;
12880;SDS011;6508;53.786;9.996;2023-11-21T04:37:14;14.07;;;10.25;;
12880;SDS011;6508;53.786;9.996;2023-11-21T04:39:42;14.50;;;9.80;;
12880;SDS011;6508;53.786;9.996;2023-11-21T04:42:11;13.70;;;10.00;;
12880;SDS011;6508;53.786;9.996;2023-11-21T04:44:39;15.27;;;10.48;;
12880;SDS011;6508;53.786;9.996;2023-11-21T04:47:07;14.38;;;10.20;;
12880;SDS011;6508;53.786;9.996;2023-11-21T04:49:35;12.93;;;9.82;;
12880;SDS011;6508;53.786;9.996;2023-11-21T04:52:03;12.65;;;9.70;;
12880;SDS011;6508;53.786;9.996;2023-11-21T04:54:31;12.73;;;9.40;;
12880;SDS011;6508;53.786;9.996;2023-11-21T04:56:59;17.13;;;10.02;;
12880;SDS011;6508;53.786;9.996;2023-11-21T04:59:28;14.07;;;9.82;;
12880;SDS011;6508;53.786;9.996;2023-11-21T05:01:56;15.05;;;10.38;;
12880;SDS011;6508;53.786;9.996;2023-11-21T05:04:24;12.63;;;9.25;;
12880;SDS011;6508;53.786;9.996;2023-11-21T05:06:51;13.95;;;10.32;;
12880;SDS011;6508;53.786;9.996;2023-11-21T05:09:19;14.10;;;9.38;;
12880;SDS011;6508;53.786;9.996;2023-11-21T05:11:48;16.73;;;10.45;;
12880;SDS011;6508;53.786;9.996;2023-11-21T05:14:16;15.73;;;10.73;;
12880;SDS011;6508;53.786;9.996;2023-11-21T05:16:44;16.25;;;10.18;;
12880;SDS011;6508;53.786;9.996;2023-11-21T05:19:12;15.02;;;9.77;;
12880;SDS011;6508;53.786;9.996;2023-11-21T05:21:40;15.57;;;10.65;;
12880;SDS011;6508;53.786;9.996;2023-11-21T05:24:07;17.60;;;11.68;;
12880;SDS011;6508;53.786;9.996;2023-11-21T05:26:35;16.30;;;10.05;;
12880;SDS011;6508;53.786;9.996;2023-11-21T05:29:03;14.75;;;10.77;;
12880;SDS011;6508;53.786;9.996;2023-11-21T05:31:31;16.25;;;10.73;;
12880;SDS011;6508;53.786;9.996;2023-11-21T05:34:00;14.75;;;10.07;;
12880;SDS011;6508;53.786;9.996;2023-11-21T05:36:28;15.65;;;10.90;;
12880;SDS011;6508;53.786;9.996;2023-11-21T05:38:56;14.88;;;10.43;;
12880;SDS011;6508;53.786;9.996;2023-11-21T05:41:23;17.27;;;11.10;;
12880;SDS011;6508;53.786;9.996;2023-11-21T05:43:52;17.08;;;11.27;;
12880;SDS011;6508;53.786;9.996;2023-11-21T05:46:20;17.08;;;11.38;;
12880;SDS011;6508;53.786;9.996;2023-11-21T05:48:48;18.50;;;12.73;;
12880;SDS011;6508;53.786;9.996;2023-11-21T05:51:18;15.77;;;10.52;;
12880;SDS011;6508;53.786;9.996;2023-11-21T05:53:46;16.20;;;9.93;;
12880;SDS011;6508;53.786;9.996;2023-11-21T05:56:14;16.88;;;11.00;;
12880;SDS011;6508;53.786;9.996;2023-11-21T05:58:42;15.85;;;10.50;;
12880;SDS011;6508;53.786;9.996;2023-11-21T06:01:10;16.80;;;10.70;;
12880;SDS011;6508;53.786;9.996;2023-11-21T06:03:39;21.58;;;11.48;;
12880;SDS011;6508;53.786;9.996;2023-11-21T06:06:07;18.35;;;11.35;;
12880;SDS011;6508;53.786;9.996;2023-11-21T06:08:36;17.15;;;10.75;;
12880;SDS011;6508;53.786;9.996;2023-11-21T06:11:04;19.60;;;10.85;;
12880;SDS011;6508;53.786;9.996;2023-11-21T06:13:32;18.10;;;11.15;;
12880;SDS011;6508;53.786;9.996;2023-11-21T06:15:59;16.58;;;11.07;;
12880;SDS011;6508;53.786;9.996;2023-11-21T06:18:27;20.92;;;10.73;;
12880;SDS011;6508;53.786;9.996;2023-11-21T06:20:55;17.02;;;11.20;;
12880;SDS011;6508;53.786;9.996;2023-11-21T06:23:23;16.83;;;10.82;;
12880;SDS011;6508;53.786;9.996;2023-11-21T06:25:52;16.17;;;11.00;;
12880;SDS011;6508;53.786;9.996;2023-11-21T06:28:20;15.35;;;10.52;;
12880;SDS011;6508;53.786;9.996;2023-11-21T06:30:48;16.52;;;11.30;;
12880;SDS011;6508;53.786;9.996;2023-11-21T06:33:17;17.92;;;10.80;;
12880;SDS011;6508;53.786;9.996;2023-11-21T06:35:45;16.00;;;9.77;;
12880;SDS011;6508;53.786;9.996;2023-11-21T06:38:13;14.88;;;10.25;;
12880;SDS011;6508;53.786;9.996;2023-11-21T06:40:40;15.20;;;9.82;;
12880;SDS011;6508;53.786;9.996;2023-11-21T06:43:09;17.95;;;10.23;;
12880;SDS011;6508;53.786;9.996;2023-11-21T06:45:37;17.27;;;10.73;;
12880;SDS011;6508;53.786;9.996;2023-11-21T06:48:04;18.92;;;10.13;;
12880;SDS011;6508;53.786;9.996;2023-11-21T06:50:32;16.75;;;10.30;;
12880;SDS011;6508;53.786;9.996;2023-11-21T06:53:00;15.05;;;10.07;;
12880;SDS011;6508;53.786;9.996;2023-11-21T06:55:30;13.85;;;9.65;;
12880;SDS011;6508;53.786;9.996;2023-11-21T06:57:58;17.48;;;9.45;;
12880;SDS011;6508;53.786;9.996;2023-11-21T07:00:28;14.68;;;9.20;;
12880;SDS011;6508;53.786;9.996;2023-11-21T07:02:55;12.73;;;8.68;;
12880;SDS011;6508;53.786;9.996;2023-11-21T07:05:23;12.20;;;8.60;;
12880;SDS011;6508;53.786;9.996;2023-11-21T07:07:51;11.63;;;8.45;;
12880;SDS011;6508;53.786;9.996;2023-11-21T07:10:20;11.82;;;8.90;;
12880;SDS011;6508;53.786;9.996;2023-11-21T07:12:48;11.32;;;8.20;;
12880;SDS011;6508;53.786;9.996;2023-11-21T07:15:17;12.48;;;8.57;;
12880;SDS011;6508;53.786;9.996;2023-11-21T07:17:47;11.95;;;7.88;;
12880;SDS011;6508;53.786;9.996;2023-11-21T07:20:15;12.23;;;9.07;;
12880;SDS011;6508;53.786;9.996;2023-11-21T07:22:44;15.82;;;8.95;;
12880;SDS011;6508;53.786;9.996;2023-11-21T07:25:11;14.90;;;8.50;;
12880;SDS011;6508;53.786;9.996;2023-11-21T07:27:39;13.32;;;8.55;;
12880;SDS011;6508;53.786;9.996;2023-11-21T07:30:07;12.95;;;8.73;;
12880;SDS011;6508;53.786;9.996;2023-11-21T07:32:36;14.68;;;8.23;;
12880;SDS011;6508;53.786;9.996;2023-11-21T07:35:08;10.52;;;8.48;;
12880;SDS011;6508;53.786;9.996;2023-11-21T07:37:36;12.80;;;8.05;;
12880;SDS011;6508;53.786;9.996;2023-11-21T07:40:05;10.82;;;7.85;;
12880;SDS011;6508;53.786;9.996;2023-11-21T07:42:35;11.20;;;8.20;;
12880;SDS011;6508;53.786;9.996;2023-11-21T07:45:04;10.30;;;7.53;;
12880;SDS011;6508;53.786;9.996;2023-11-21T07:47:33;11.27;;;7.65;;
12880;SDS011;6508;53.786;9.996;2023-11-21T07:50:02;8.40;;;7.50;;
12880;SDS011;6508;53.786;9.996;2023-11-21T07:52:32;9.15;;;7.15;;
12880;SDS011;6508;53.786;9.996;2023-11-21T07:55:00;10.00;;;7.10;;
12880;SDS011;6508;53.786;9.996;2023-11-21T07:57:28;11.25;;;7.10;;
12880;SDS011;6508;53.786;9.996;2023-11-21T07:59:55;9.38;;;6.25;;
12880;SDS011;6508;53.786;9.996;2023-11-21T08:02:23;9.43;;;7.10;;
12880;SDS011;6508;53.786;9.996;2023-11-21T08:04:52;12.52;;;6.90;;
12880;SDS011;6508;53.786;9.996;2023-11-21T08:07:20;7.60;;;6.47;;
12880;SDS011;6508;53.786;9.996;2023-11-21T08:09:49;12.43;;;6.75;;
12880;SDS011;6508;53.786;9.996;2023-11-21T08:12:17;8.68;;;6.70;;
12880;SDS011;6508;53.786;9.996;2023-11-21T08:14:46;9.18;;;6.50;;
12880;SDS011;6508;53.786;9.996;2023-11-21T08:17:14;7.65;;;5.55;;
12880;SDS011;6508;53.786;9.996;2023-11-21T08:19:44;7.45;;;5.75;;
12880;SDS011;6508;53.786;9.996;2023-11-21T08:22:15;7.57;;;5.70;;
12880;SDS011;6508;53.786;9.996;2023-11-21T08:24:44;6.18;;;5.57;;
12880;SDS011;6508;53.786;9.996;2023-11-21T08:27:14;7.90;;;5.80;;
12880;SDS011;6508;53.786;9.996;2023-11-21T08:29:43;9.18;;;5.32;;
12880;SDS011;6508;53.786;9.996;2023-11-21T08:32:09;7.40;;;5.35;;
12880;SDS011;6508;53.786;9.996;2023-11-21T08:34:37;6.55;;;5.18;;
12880;SDS011;6508;53.786;9.996;2023-11-21T08:37:06;6.07;;;5.47;;
12880;SDS011;6508;53.786;9.996;2023-11-21T08:39:34;6.35;;;5.63;;
12880;SDS011;6508;53.786;9.996;2023-11-21T08:42:03;9.48;;;5.25;;
12880;SDS011;6508;53.786;9.996;2023-11-21T08:44:32;6.15;;;5.55;;
12880;SDS011;6508;53.786;9.996;2023-11-21T08:47:00;6.25;;;5.10;;
12880;SDS011;6508;53.786;9.996;2023-11-21T08:49:30;6.65;;;6.00;;
12880;SDS011;6508;53.786;9.996;2023-11-21T08:51:57;5.88;;;5.25;;
12880;SDS011;6508;53.786;9.996;2023-11-21T08:54:26;5.93;;;5.30;;
12880;SDS011;6508;53.786;9.996;2023-11-21T08:56:54;6.13;;;5.38;;
12880;SDS011;6508;53.786;9.996;2023-11-21T08:59:24;8.20;;;4.65;;
12880;SDS011;6508;53.786;9.996;2023-11-21T09:01:53;5.95;;;5.05;;
12880;SDS011;6508;53.786;9.996;2023-11-21T09:04:21;5.43;;;4.97;;
12880;SDS011;6508;53.786;9.996;2023-11-21T09:06:49;7.68;;;5.45;;
12880;SDS011;6508;53.786;9.996;2023-11-21T09:09:16;5.45;;;4.95;;
12880;SDS011;6508;53.786;9.996;2023-11-21T09:11:46;5.65;;;5.10;;
12880;SDS011;6508;53.786;9.996;2023-11-21T09:14:15;5.38;;;4.93;;
12880;SDS011;6508;53.786;9.996;2023-11-21T09:16:44;4.95;;;4.45;;
12880;SDS011;6508;53.786;9.996;2023-11-21T09:19:13;6.50;;;4.40;;
12880;SDS011;6508;53.786;9.996;2023-11-21T09:21:41;4.97;;;4.47;;
12880;SDS011;6508;53.786;9.996;2023-11-21T09:24:09;5.03;;;4.45;;
12880;SDS011;6508;53.786;9.996;2023-11-21T09:26:37;5.13;;;4.72;;
12880;SDS011;6508;53.786;9.996;2023-11-21T09:29:05;4.70;;;4.30;;
12880;SDS011;6508;53.786;9.996;2023-11-21T09:31:34;4.82;;;4.43;;
12880;SDS011;6508;53.786;9.996;2023-11-21T09:34:02;4.65;;;4.25;;
12880;SDS011;6508;53.786;9.996;2023-11-21T09:36:31;4.68;;;4.10;;
12880;SDS011;6508;53.786;9.996;2023-11-21T09:38:59;5.93;;;3.65;;
12880;SDS011;6508;53.786;9.996;2023-11-21T09:41:30;3.33;;;3.13;;
12880;SDS011;6508;53.786;9.996;2023-11-21T09:44:02;4.28;;;3.80;;
12880;SDS011;6508;53.786;9.996;2023-11-21T09:46:30;3.40;;;3.10;;
12880;SDS011;6508;53.786;9.996;2023-11-21T09:48:58;3.15;;;2.95;;
12880;SDS011;6508;53.786;9.996;2023-11-21T09:51:27;3.40;;;3.10;;
12880;SDS011;6508;53.786;9.996;2023-11-21T09:54:01;2.85;;;2.65;;
12880;SDS011;6508;53.786;9.996;2023-11-21T09:56:32;3.10;;;2.90;;
12880;SDS011;6508;53.786;9.996;2023-11-21T09:59:00;2.80;;;2.60;;
12880;SDS011;6508;53.786;9.996;2023-11-21T10:01:32;3.13;;;2.92;;
12880;SDS011;6508;53.786;9.996;2023-11-21T10:04:00;3.03;;;2.83;;
12880;SDS011;6508;53.786;9.996;2023-11-21T10:06:28;2.88;;;2.67;;
12880;SDS011;6508;53.786;9.996;2023-11-21T10:08:56;3.50;;;3.20;;
12880;SDS011;6508;53.786;9.996;2023-11-21T10:11:25;3.45;;;3.15;;
12880;SDS011;6508;53.786;9.996;2023-11-21T10:13:54;3.40;;;3.20;;
12880;SDS011;6508;53.786;9.996;2023-11-21T10:16:24;3.35;;;3.13;;
12880;SDS011;6508;53.786;9.996;2023-11-21T10:18:53;3.70;;;3.30;;
12880;SDS011;6508;53.786;9.996;2023-11-21T10:21:37;3.85;;;3.28;;
12880;SDS011;6508;53.786;9.996;2023-11-21T10:24:05;3.40;;;3.20;;
12880;SDS011;6508;53.786;9.996;2023-11-21T10:26:35;3.88;;;3.58;;
12880;SDS011;6508;53.786;9.996;2023-11-21T10:29:16;3.85;;;3.55;;
12880;SDS011;6508;53.786;9.996;2023-11-21T10:31:45;6.72;;;3.63;;
12880;SDS011;6508;53.786;9.996;2023-11-21T10:34:13;4.25;;;3.60;;
12880;SDS011;6508;53.786;9.996;2023-11-21T10:36:40;3.97;;;3.67;;
12880;SDS011;6508;53.786;9.996;2023-11-21T10:39:08;4.18;;;3.88;;
12880;SDS011;6508;53.786;9.996;2023-11-21T10:41:38;5.45;;;3.60;;
12880;SDS011;6508;53.786;9.996;2023-11-21T10:44:06;4.05;;;3.75;;
12880;SDS011;6508;53.786;9.996;2023-11-21T10:46:37;4.03;;;3.65;;
12880;SDS011;6508;53.786;9.996;2023-11-21T10:49:06;4.32;;;4.00;;
12880;SDS011;6508;53.786;9.996;2023-11-21T10:51:35;4.50;;;3.78;;
12880;SDS011;6508;53.786;9.996;2023-11-21T10:54:03;4.90;;;4.38;;
12880;SDS011;6508;53.786;9.996;2023-11-21T10:56:31;4.60;;;4.30;;
12880;SDS011;6508;53.786;9.996;2023-11-21T10:59:02;4.72;;;4.20;;
12880;SDS011;6508;53.786;9.996;2023-11-21T11:01:32;4.38;;;3.97;;
12880;SDS011;6508;53.786;9.996;2023-11-21T11:04:00;4.70;;;4.07;;
12880;SDS011;6508;53.786;9.996;2023-11-21T11:06:29;4.35;;;4.00;;
12880;SDS011;6508;53.786;9.996;2023-11-21T11:08:59;3.80;;;3.50;;
12880;SDS011;6508;53.786;9.996;2023-11-21T11:11:28;5.22;;;4.30;;
12880;SDS011;6508;53.786;9.996;2023-11-21T11:13:57;3.85;;;3.55;;
12880;SDS011;6508;53.786;9.996;2023-11-21T11:16:28;3.92;;;3.63;;
12880;SDS011;6508;53.786;9.996;2023-11-21T11:18:55;3.53;;;3.22;;
12880;SDS011;6508;53.786;9.996;2023-11-21T11:21:25;3.55;;;3.25;;
12880;SDS011;6508;53.786;9.996;2023-11-21T11:24:00;3.83;;;3.53;;
12880;SDS011;6508;53.786;9.996;2023-11-21T11:26:37;4.88;;;3.70;;
12880;SDS011;6508;53.786;9.996;2023-11-21T11:29:09;5.13;;;4.13;;
12880;SDS011;6508;53.786;9.996;2023-11-21T11:31:44;4.40;;;3.97;;
12880;SDS011;6508;53.786;9.996;2023-11-21T11:34:16;4.50;;;4.10;;
12880;SDS011;6508;53.786;9.996;2023-11-21T11:36:47;4.40;;;4.10;;
12880;SDS011;6508;53.786;9.996;2023-11-21T11:39:28;5.05;;;3.78;;
12880;SDS011;6508;53.786;9.996;2023-11-21T11:41:56;3.92;;;3.47;;
12880;SDS011;6508;53.786;9.996;2023-11-21T11:47:14;4.15;;;3.75;;
12880;SDS011;6508;53.786;9.996;2023-11-21T11:49:54;4.05;;;3.75;;
12880;SDS011;6508;53.786;9.996;2023-11-21T11:52:35;4.28;;;3.88;;
12880;SDS011;6508;53.786;9.996;2023-11-21T11:55:03;3.90;;;3.60;;
12880;SDS011;6508;53.786;9.996;2023-11-21T11:57:31;3.53;;;3.22;;
12880;SDS011;6508;53.786;9.996;2023-11-21T12:00:13;3.80;;;3.50;;
12880;SDS011;6508;53.786;9.996;2023-11-21T12:02:48;3.60;;;3.30;;
12880;SDS011;6508;53.786;9.996;2023-11-21T12:05:18;3.20;;;3.00;;
12880;SDS011;6508;53.786;9.996;2023-11-21T12:07:47;4.05;;;3.20;;
12880;SDS011;6508;53.786;9.996;2023-11-21T12:10:16;3.63;;;3.33;;
12880;SDS011;6508;53.786;9.996;2023-11-21T12:12:45;4.00;;;3.70;;
12880;SDS011;6508;53.786;9.996;2023-11-21T12:15:14;3.90;;;3.60;;
12880;SDS011;6508;53.786;9.996;2023-11-21T12:17:42;5.22;;;4.20;;
12880;SDS011;6508;53.786;9.996;2023-11-21T12:20:12;3.63;;;3.20;;
12880;SDS011;6508;53.786;9.996;2023-11-21T12:22:45;3.60;;;3.30;;
12880;SDS011;6508;53.786;9.996;2023-11-21T12:25:15;3.97;;;3.65;;
12880;SDS011;6508;53.786;9.996;2023-11-21T12:27:45;4.10;;;3.70;;
12880;SDS011;6508;53.786;9.996;2023-11-21T12:30:16;4.38;;;3.95;;
12880;SDS011;6508;53.786;9.996;2023-11-21T12:32:45;4.85;;;4.40;;
12880;SDS011;6508;53.786;9.996;2023-11-21T12:35:14;4.97;;;4.43;;
12880;SDS011;6508;53.786;9.996;2023-11-21T12:37:44;4.80;;;4.45;;
12880;SDS011;6508;53.786;9.996;2023-11-21T12:40:11;6.40;;;4.40;;
12880;SDS011;6508;53.786;9.996;2023-11-21T12:42:41;5.07;;;4.47;;
12880;SDS011;6508;53.786;9.996;2023-11-21T12:45:12;5.50;;;4.97;;
12880;SDS011;6508;53.786;9.996;2023-11-21T12:47:46;5.18;;;4.78;;
12880;SDS011;6508;53.786;9.996;2023-11-21T12:50:16;6.57;;;5.55;;
12880;SDS011;6508;53.786;9.996;2023-11-21T12:52:48;9.82;;;7.78;;
12880;SDS011;6508;53.786;9.996;2023-11-21T12:55:17;10.32;;;7.63;;
12880;SDS011;6508;53.786;9.996;2023-11-21T12:57:48;5.60;;;4.93;;
12880;SDS011;6508;53.786;9.996;2023-11-21T13:00:17;5.32;;;4.82;;
12880;SDS011;6508;53.786;9.996;2023-11-21T13:02:54;4.85;;;4.40;;
12880;SDS011;6508;53.786;9.996;2023-11-21T13:05:25;5.78;;;4.72;;
12880;SDS011;6508;53.786;9.996;2023-11-21T13:07:53;5.68;;;5.13;;
12880;SDS011;6508;53.786;9.996;2023-11-21T13:10:22;5.82;;;4.68;;
12880;SDS011;6508;53.786;9.996;2023-11-21T13:12:55;4.93;;;4.53;;
12880;SDS011;6508;53.786;9.996;2023-11-21T13:15:24;5.57;;;5.00;;
12880;SDS011;6508;53.786;9.996;2023-11-21T13:17:53;5.20;;;4.65;;
12880;SDS011;6508;53.786;9.996;2023-11-21T13:20:23;5.13;;;4.63;;
12880;SDS011;6508;53.786;9.996;2023-11-21T13:22:52;6.63;;;5.28;;
12880;SDS011;6508;53.786;9.996;2023-11-21T13:25:23;4.85;;;4.35;;
12880;SDS011;6508;53.786;9.996;2023-11-21T13:27:54;5.05;;;4.63;;
12880;SDS011;6508;53.786;9.996;2023-11-21T13:30:22;5.95;;;5.35;;
12880;SDS011;6508;53.786;9.996;2023-11-21T13:32:53;5.68;;;5.05;;
12880;SDS011;6508;53.786;9.996;2023-11-21T13:35:23;6.13;;;5.20;;
12880;SDS011;6508;53.786;9.996;2023-11-21T13:38:03;5.28;;;4.88;;
12880;SDS011;6508;53.786;9.996;2023-11-21T13:40:32;5.55;;;4.82;;
12880;SDS011;6508;53.786;9.996;2023-11-21T13:43:07;6.97;;;5.35;;
12880;SDS011;6508;53.786;9.996;2023-11-21T13:45:36;4.97;;;4.47;;
12880;SDS011;6508;53.786;9.996;2023-11-21T13:48:08;6.85;;;5.50;;
12880;SDS011;6508;53.786;9.996;2023-11-21T13:50:37;6.30;;;5.63;;
12880;SDS011;6508;53.786;9.996;2023-11-21T13:53:06;6.30;;;5.25;;
12880;SDS011;6508;53.786;9.996;2023-11-21T13:55:45;5.47;;;4.97;;
12880;SDS011;6508;53.786;9.996;2023-11-21T13:58:14;7.03;;;4.63;;
12880;SDS011;6508;53.786;9.996;2023-11-21T14:00:46;4.85;;;4.30;;
12880;SDS011;6508;53.786;9.996;2023-11-21T14:03:23;4.95;;;4.45;;
12880;SDS011;6508;53.786;9.996;2023-11-21T14:05:59;6.80;;;4.25;;
12880;SDS011;6508;53.786;9.996;2023-11-21T14:08:35;5.30;;;4.80;;
12880;SDS011;6508;53.786;9.996;2023-11-21T14:11:03;8.15;;;4.80;;
12880;SDS011;6508;53.786;9.996;2023-11-21T14:13:33;4.93;;;4.30;;
12880;SDS011;6508;53.786;9.996;2023-11-21T14:16:01;5.95;;;3.88;;
12880;SDS011;6508;53.786;9.996;2023-11-21T14:18:29;4.90;;;4.30;;
12880;SDS011;6508;53.786;9.996;2023-11-21T14:21:02;6.47;;;4.45;;
12880;SDS011;6508;53.786;9.996;2023-11-21T14:23:32;5.88;;;4.88;;
12880;SDS011;6508;53.786;9.996;2023-11-21T14:26:03;4.82;;;4.43;;
12880;SDS011;6508;53.786;9.996;2023-11-21T14:28:32;5.70;;;5.00;;
12880;SDS011;6508;53.786;9.996;2023-11-21T14:31:01;7.20;;;5.07;;
12880;SDS011;6508;53.786;9.996;2023-11-21T14:33:29;7.50;;;4.57;;
12880;SDS011;6508;53.786;9.996;2023-11-21T14:35:57;6.65;;;5.15;;
12880;SDS011;6508;53.786;9.996;2023-11-21T14:38:25;5.50;;;4.70;;
12880;SDS011;6508;53.786;9.996;2023-11-21T14:40:54;5.57;;;4.90;;
12880;SDS011;6508;53.786;9.996;2023-11-21T14:43:23;6.80;;;5.22;;
12880;SDS011;6508;53.786;9.996;2023-11-21T14:45:52;6.10;;;5.50;;
12880;SDS011;6508;53.786;9.996;2023-11-21T14:48:22;6.30;;;5.07;;
12880;SDS011;6508;53.786;9.996;2023-11-21T14:51:08;5.50;;;4.88;;
12880;SDS011;6508;53.786;9.996;2023-11-21T14:53:57;5.88;;;5.03;;
12880;SDS011;6508;53.786;9.996;2023-11-21T14:56:31;6.40;;;5.68;;
12880;SDS011;6508;53.786;9.996;2023-11-21T14:59:02;8.18;;;5.90;;
12880;SDS011;6508;53.786;9.996;2023-11-21T15:01:34;7.60;;;6.18;;
12880;SDS011;6508;53.786;9.996;2023-11-21T15:04:12;9.52;;;6.43;;